sensor_id;sensor_type;location;lat;lon;timestamp;P1;durP1;ratioP1;P2;durP2;ratioP2
31872;SDS011;22407;42.820;23.374;2023-03-14T00:02:18;10.87;;;5.17;;
31872;SDS011;22407;42.820;23.374;2023-03-14T00:04:43;10.77;;;4.27;;
31872;SDS011;22407;42.820;23.374;2023-03-14T00:07:10;8.55;;;4.22;;
31872;SDS011;22407;42.820;23.374;2023-03-14T00:09:35;9.07;;;4.18;;
31872;SDS011;22407;42.820;23.374;2023-03-14T00:12:00;12.70;;;5.73;;
31872;SDS011;22407;42.820;23.374;2023-03-14T00:14:28;10.43;;;4.10;;
31872;SDS011;22407;42.820;23.374;2023-03-14T00:16:53;9.20;;;3.88;;
31872;SDS011;22407;42.820;23.374;2023-03-14T00:19:18;11.10;;;4.30;;
31872;SDS011;22407;42.820;23.374;2023-03-14T00:21:44;11.40;;;4.43;;
31872;SDS011;22407;42.820;23.374;2023-03-14T00:24:09;8.87;;;4.17;;
31872;SDS011;22407;42.820;23.374;2023-03-14T00:26:34;11.13;;;4.63;;
31872;SDS011;22407;42.820;23.374;2023-03-14T00:29:00;9.60;;;4.13;;
31872;SDS011;22407;42.820;23.374;2023-03-14T00:31:25;9.17;;;5.10;;
31872;SDS011;22407;42.820;23.374;2023-03-14T00:33:51;10.77;;;4.87;;
31872;SDS011;22407;42.820;23.374;2023-03-14T00:36:17;11.10;;;4.20;;
31872;SDS011;22407;42.820;23.374;2023-03-14T00:38:43;9.80;;;4.30;;
31872;SDS011;22407;42.820;23.374;2023-03-14T00:41:10;10.43;;;4.07;;
31872;SDS011;22407;42.820;23.374;2023-03-14T00:43:36;8.90;;;4.13;;
31872;SDS011;22407;42.820;23.374;2023-03-14T00:46:01;11.68;;;5.05;;
31872;SDS011;22407;42.820;23.374;2023-03-14T00:48:26;9.97;;;4.00;;
31872;SDS011;22407;42.820;23.374;2023-03-14T00:50:52;10.97;;;4.10;;
31872;SDS011;22407;42.820;23.374;2023-03-14T00:53:17;9.13;;;4.33;;
31872;SDS011;22407;42.820;23.374;2023-03-14T00:55:43;10.20;;;4.70;;
31872;SDS011;22407;42.820;23.374;2023-03-14T00:58:08;9.75;;;4.78;;
31872;SDS011;22407;42.820;23.374;2023-03-14T01:00:34;8.40;;;4.00;;
31872;SDS011;22407;42.820;23.374;2023-03-14T01:03:00;9.00;;;4.37;;
31872;SDS011;22407;42.820;23.374;2023-03-14T01:05:25;9.65;;;4.75;;
31872;SDS011;22407;42.820;23.374;2023-03-14T01:07:50;10.17;;;4.77;;
31872;SDS011;22407;42.820;23.374;2023-03-14T01:10:16;11.30;;;4.63;;
31872;SDS011;22407;42.820;23.374;2023-03-14T01:12:41;11.67;;;4.87;;
31872;SDS011;22407;42.820;23.374;2023-03-14T01:15:06;17.73;;;5.45;;
31872;SDS011;22407;42.820;23.374;2023-03-14T01:17:32;8.70;;;4.13;;
31872;SDS011;22407;42.820;23.374;2023-03-14T01:19:57;9.07;;;4.20;;
31872;SDS011;22407;42.820;23.374;2023-03-14T01:22:24;9.25;;;3.92;;
31872;SDS011;22407;42.820;23.374;2023-03-14T01:24:49;9.50;;;4.83;;
31872;SDS011;22407;42.820;23.374;2023-03-14T01:27:14;10.30;;;4.60;;
31872;SDS011;22407;42.820;23.374;2023-03-14T01:29:39;9.32;;;3.85;;
31872;SDS011;22407;42.820;23.374;2023-03-14T01:32:05;11.27;;;4.57;;
31872;SDS011;22407;42.820;23.374;2023-03-14T01:34:30;10.20;;;4.47;;
31872;SDS011;22407;42.820;23.374;2023-03-14T01:36:56;8.97;;;3.60;;
31872;SDS011;22407;42.820;23.374;2023-03-14T01:39:21;9.77;;;3.80;;
31872;SDS011;22407;42.820;23.374;2023-03-14T01:41:46;12.70;;;5.07;;
31872;SDS011;22407;42.820;23.374;2023-03-14T01:44:12;34.93;;;12.67;;
31872;SDS011;22407;42.820;23.374;2023-03-14T01:46:40;20.43;;;7.67;;
31872;SDS011;22407;42.820;23.374;2023-03-14T01:51:42;13.60;;;5.30;;
31872;SDS011;22407;42.820;23.374;2023-03-14T01:57:23;8.98;;;4.03;;
31872;SDS011;22407;42.820;23.374;2023-03-14T01:59:58;9.90;;;3.65;;
31872;SDS011;22407;42.820;23.374;2023-03-14T02:02:24;8.25;;;4.20;;
31872;SDS011;22407;42.820;23.374;2023-03-14T02:04:51;8.40;;;4.37;;
31872;SDS011;22407;42.820;23.374;2023-03-14T02:07:20;12.90;;;5.63;;
31872;SDS011;22407;42.820;23.374;2023-03-14T02:09:48;12.17;;;6.10;;
31872;SDS011;22407;42.820;23.374;2023-03-14T02:12:14;12.23;;;6.28;;
31872;SDS011;22407;42.820;23.374;2023-03-14T02:14:40;11.52;;;5.32;;
31872;SDS011;22407;42.820;23.374;2023-03-14T02:17:07;9.02;;;4.80;;
31872;SDS011;22407;42.820;23.374;2023-03-14T02:19:39;9.60;;;4.70;;
31872;SDS011;22407;42.820;23.374;2023-03-14T02:22:10;14.98;;;5.30;;
31872;SDS011;22407;42.820;23.374;2023-03-14T02:27:17;9.53;;;4.67;;
31872;SDS011;22407;42.820;23.374;2023-03-14T02:29:45;11.18;;;5.47;;
31872;SDS011;22407;42.820;23.374;2023-03-14T02:32:12;12.65;;;6.30;;
31872;SDS011;22407;42.820;23.374;2023-03-14T02:34:38;10.03;;;4.77;;
31872;SDS011;22407;42.820;23.374;2023-03-14T02:37:03;9.87;;;4.87;;
31872;SDS011;22407;42.820;23.374;2023-03-14T02:39:40;9.55;;;4.70;;
31872;SDS011;22407;42.820;23.374;2023-03-14T02:42:06;8.73;;;4.18;;
31872;SDS011;22407;42.820;23.374;2023-03-14T02:44:32;9.67;;;4.37;;
31872;SDS011;22407;42.820;23.374;2023-03-14T02:46:57;10.30;;;4.50;;
31872;SDS011;22407;42.820;23.374;2023-03-14T02:49:22;13.50;;;7.33;;
31872;SDS011;22407;42.820;23.374;2023-03-14T02:51:48;9.87;;;4.87;;
31872;SDS011;22407;42.820;23.374;2023-03-14T02:54:14;9.77;;;4.72;;
31872;SDS011;22407;42.820;23.374;2023-03-14T02:56:40;9.67;;;4.03;;
31872;SDS011;22407;42.820;23.374;2023-03-14T02:59:05;10.77;;;4.43;;
31872;SDS011;22407;42.820;23.374;2023-03-14T03:01:31;9.68;;;4.50;;
31872;SDS011;22407;42.820;23.374;2023-03-14T03:03:56;8.07;;;4.23;;
31872;SDS011;22407;42.820;23.374;2023-03-14T03:06:21;8.80;;;3.87;;
31872;SDS011;22407;42.820;23.374;2023-03-14T03:08:46;9.43;;;3.93;;
31872;SDS011;22407;42.820;23.374;2023-03-14T03:11:12;9.60;;;4.63;;
31872;SDS011;22407;42.820;23.374;2023-03-14T03:13:37;10.10;;;4.83;;
31872;SDS011;22407;42.820;23.374;2023-03-14T03:16:03;10.60;;;4.33;;
31872;SDS011;22407;42.820;23.374;2023-03-14T03:18:28;11.23;;;4.68;;
31872;SDS011;22407;42.820;23.374;2023-03-14T03:20:53;9.07;;;4.27;;
31872;SDS011;22407;42.820;23.374;2023-03-14T03:23:19;10.90;;;5.03;;
31872;SDS011;22407;42.820;23.374;2023-03-14T03:25:50;11.50;;;5.40;;
31872;SDS011;22407;42.820;23.374;2023-03-14T03:28:16;9.80;;;3.70;;
31872;SDS011;22407;42.820;23.374;2023-03-14T03:30:41;8.70;;;3.43;;
31872;SDS011;22407;42.820;23.374;2023-03-14T03:33:07;9.52;;;4.13;;
31872;SDS011;22407;42.820;23.374;2023-03-14T03:35:33;9.13;;;3.80;;
31872;SDS011;22407;42.820;23.374;2023-03-14T03:37:58;14.30;;;6.30;;
31872;SDS011;22407;42.820;23.374;2023-03-14T03:40:24;45.47;;;11.03;;
31872;SDS011;22407;42.820;23.374;2023-03-14T03:42:49;31.33;;;9.77;;
31872;SDS011;22407;42.820;23.374;2023-03-14T03:45:14;15.97;;;5.87;;
31872;SDS011;22407;42.820;23.374;2023-03-14T03:47:39;13.90;;;5.83;;
31872;SDS011;22407;42.820;23.374;2023-03-14T03:50:05;17.40;;;6.67;;
31872;SDS011;22407;42.820;23.374;2023-03-14T03:52:30;12.33;;;5.07;;
31872;SDS011;22407;42.820;23.374;2023-03-14T03:54:56;9.93;;;4.63;;
31872;SDS011;22407;42.820;23.374;2023-03-14T03:57:21;9.07;;;3.70;;
31872;SDS011;22407;42.820;23.374;2023-03-14T03:59:46;10.53;;;3.60;;
31872;SDS011;22407;42.820;23.374;2023-03-14T04:02:12;8.77;;;3.77;;
31872;SDS011;22407;42.820;23.374;2023-03-14T04:04:37;9.60;;;3.77;;
31872;SDS011;22407;42.820;23.374;2023-03-14T04:07:03;9.05;;;4.07;;
31872;SDS011;22407;42.820;23.374;2023-03-14T04:09:29;10.83;;;4.57;;
31872;SDS011;22407;42.820;23.374;2023-03-14T04:11:54;11.13;;;4.33;;
31872;SDS011;22407;42.820;23.374;2023-03-14T04:14:19;10.03;;;5.13;;
31872;SDS011;22407;42.820;23.374;2023-03-14T04:16:45;10.13;;;4.43;;
31872;SDS011;22407;42.820;23.374;2023-03-14T04:19:10;11.37;;;4.93;;
31872;SDS011;22407;42.820;23.374;2023-03-14T04:21:35;12.43;;;5.73;;
31872;SDS011;22407;42.820;23.374;2023-03-14T04:24:01;14.93;;;6.40;;
31872;SDS011;22407;42.820;23.374;2023-03-14T04:26:26;11.97;;;5.10;;
31872;SDS011;22407;42.820;23.374;2023-03-14T04:28:51;11.17;;;5.00;;
31872;SDS011;22407;42.820;23.374;2023-03-14T04:31:18;10.67;;;5.27;;
31872;SDS011;22407;42.820;23.374;2023-03-14T04:33:43;10.35;;;5.25;;
31872;SDS011;22407;42.820;23.374;2023-03-14T04:36:09;10.63;;;5.03;;
31872;SDS011;22407;42.820;23.374;2023-03-14T04:38:34;10.45;;;4.55;;
31872;SDS011;22407;42.820;23.374;2023-03-14T04:40:59;10.90;;;4.83;;
31872;SDS011;22407;42.820;23.374;2023-03-14T04:43:25;9.73;;;4.97;;
31872;SDS011;22407;42.820;23.374;2023-03-14T04:45:51;9.90;;;4.82;;
31872;SDS011;22407;42.820;23.374;2023-03-14T04:48:18;11.23;;;5.27;;
31872;SDS011;22407;42.820;23.374;2023-03-14T04:50:43;11.60;;;5.07;;
31872;SDS011;22407;42.820;23.374;2023-03-14T04:53:08;13.53;;;5.70;;
31872;SDS011;22407;42.820;23.374;2023-03-14T04:55:34;12.13;;;5.37;;
31872;SDS011;22407;42.820;23.374;2023-03-14T04:58:00;11.90;;;5.70;;
31872;SDS011;22407;42.820;23.374;2023-03-14T05:00:25;16.53;;;6.97;;
31872;SDS011;22407;42.820;23.374;2023-03-14T05:02:50;12.90;;;6.17;;
31872;SDS011;22407;42.820;23.374;2023-03-14T05:05:16;14.27;;;6.73;;
31872;SDS011;22407;42.820;23.374;2023-03-14T05:07:41;12.07;;;6.07;;
31872;SDS011;22407;42.820;23.374;2023-03-14T05:10:06;12.97;;;6.20;;
31872;SDS011;22407;42.820;23.374;2023-03-14T05:12:32;15.90;;;9.77;;
31872;SDS011;22407;42.820;23.374;2023-03-14T05:14:57;17.17;;;8.60;;
31872;SDS011;22407;42.820;23.374;2023-03-14T05:17:22;13.30;;;6.97;;
31872;SDS011;22407;42.820;23.374;2023-03-14T05:19:48;15.20;;;7.05;;
31872;SDS011;22407;42.820;23.374;2023-03-14T05:22:13;14.43;;;6.97;;
31872;SDS011;22407;42.820;23.374;2023-03-14T05:24:38;18.63;;;8.07;;
31872;SDS011;22407;42.820;23.374;2023-03-14T05:27:04;18.67;;;8.60;;
31872;SDS011;22407;42.820;23.374;2023-03-14T05:29:29;23.57;;;8.53;;
31872;SDS011;22407;42.820;23.374;2023-03-14T05:31:54;16.10;;;6.90;;
31872;SDS011;22407;42.820;23.374;2023-03-14T05:34:20;16.17;;;6.97;;
31872;SDS011;22407;42.820;23.374;2023-03-14T05:36:45;18.93;;;8.27;;
31872;SDS011;22407;42.820;23.374;2023-03-14T05:39:10;19.40;;;8.67;;
31872;SDS011;22407;42.820;23.374;2023-03-14T05:41:35;22.43;;;8.83;;
31872;SDS011;22407;42.820;23.374;2023-03-14T05:44:01;24.77;;;8.97;;
31872;SDS011;22407;42.820;23.374;2023-03-14T05:46:26;29.97;;;10.30;;
31872;SDS011;22407;42.820;23.374;2023-03-14T05:48:51;43.93;;;16.33;;
31872;SDS011;22407;42.820;23.374;2023-03-14T05:51:16;41.50;;;14.67;;
31872;SDS011;22407;42.820;23.374;2023-03-14T05:53:42;36.10;;;13.33;;
31872;SDS011;22407;42.820;23.374;2023-03-14T05:56:07;31.00;;;13.10;;
31872;SDS011;22407;42.820;23.374;2023-03-14T05:58:32;38.97;;;12.70;;
31872;SDS011;22407;42.820;23.374;2023-03-14T06:01:01;38.20;;;14.53;;
31872;SDS011;22407;42.820;23.374;2023-03-14T06:03:26;34.38;;;13.75;;
31872;SDS011;22407;42.820;23.374;2023-03-14T06:05:52;39.57;;;15.40;;
31872;SDS011;22407;42.820;23.374;2023-03-14T06:08:17;25.90;;;11.23;;
31872;SDS011;22407;42.820;23.374;2023-03-14T06:10:42;25.52;;;11.55;;
31872;SDS011;22407;42.820;23.374;2023-03-14T06:13:07;26.90;;;12.17;;
31872;SDS011;22407;42.820;23.374;2023-03-14T06:15:33;29.20;;;11.93;;
31872;SDS011;22407;42.820;23.374;2023-03-14T06:17:58;32.10;;;11.87;;
31872;SDS011;22407;42.820;23.374;2023-03-14T06:20:23;35.23;;;13.67;;
31872;SDS011;22407;42.820;23.374;2023-03-14T06:22:49;28.20;;;11.60;;
31872;SDS011;22407;42.820;23.374;2023-03-14T06:25:14;25.90;;;10.63;;
31872;SDS011;22407;42.820;23.374;2023-03-14T06:27:39;22.77;;;9.18;;
31872;SDS011;22407;42.820;23.374;2023-03-14T06:30:05;21.13;;;9.53;;
31872;SDS011;22407;42.820;23.374;2023-03-14T06:32:30;23.90;;;10.63;;
31872;SDS011;22407;42.820;23.374;2023-03-14T06:34:56;23.23;;;10.40;;
31872;SDS011;22407;42.820;23.374;2023-03-14T06:37:22;19.50;;;9.23;;
31872;SDS011;22407;42.820;23.374;2023-03-14T06:39:47;20.23;;;8.93;;
31872;SDS011;22407;42.820;23.374;2023-03-14T06:42:13;37.47;;;13.00;;
31872;SDS011;22407;42.820;23.374;2023-03-14T06:44:38;35.07;;;13.80;;
31872;SDS011;22407;42.820;23.374;2023-03-14T06:47:03;28.13;;;12.43;;
31872;SDS011;22407;42.820;23.374;2023-03-14T06:49:28;24.73;;;8.30;;
31872;SDS011;22407;42.820;23.374;2023-03-14T06:51:54;19.33;;;9.80;;
31872;SDS011;22407;42.820;23.374;2023-03-14T06:54:19;19.40;;;9.00;;
31872;SDS011;22407;42.820;23.374;2023-03-14T06:56:44;20.07;;;7.60;;
31872;SDS011;22407;42.820;23.374;2023-03-14T06:59:09;17.40;;;8.10;;
31872;SDS011;22407;42.820;23.374;2023-03-14T07:01:35;19.13;;;7.33;;
31872;SDS011;22407;42.820;23.374;2023-03-14T07:04:00;21.73;;;8.03;;
31872;SDS011;22407;42.820;23.374;2023-03-14T07:06:26;20.73;;;8.40;;
31872;SDS011;22407;42.820;23.374;2023-03-14T07:08:51;36.53;;;10.93;;
31872;SDS011;22407;42.820;23.374;2023-03-14T07:11:16;20.20;;;8.77;;
31872;SDS011;22407;42.820;23.374;2023-03-14T07:13:42;18.70;;;9.03;;
31872;SDS011;22407;42.820;23.374;2023-03-14T07:16:08;19.70;;;9.03;;
31872;SDS011;22407;42.820;23.374;2023-03-14T07:18:33;21.98;;;9.88;;
31872;SDS011;22407;42.820;23.374;2023-03-14T07:20:58;17.63;;;7.97;;
31872;SDS011;22407;42.820;23.374;2023-03-14T07:23:23;17.37;;;6.77;;
31872;SDS011;22407;42.820;23.374;2023-03-14T07:25:49;18.00;;;7.43;;
31872;SDS011;22407;42.820;23.374;2023-03-14T07:28:15;26.38;;;9.75;;
31872;SDS011;22407;42.820;23.374;2023-03-14T07:30:41;19.97;;;9.57;;
31872;SDS011;22407;42.820;23.374;2023-03-14T07:33:06;16.90;;;6.83;;
31872;SDS011;22407;42.820;23.374;2023-03-14T07:35:31;14.23;;;6.47;;
31872;SDS011;22407;42.820;23.374;2023-03-14T07:37:56;18.17;;;7.43;;
31872;SDS011;22407;42.820;23.374;2023-03-14T07:40:21;21.03;;;8.63;;
31872;SDS011;22407;42.820;23.374;2023-03-14T07:42:47;24.80;;;9.93;;
31872;SDS011;22407;42.820;23.374;2023-03-14T07:45:13;39.08;;;13.35;;
31872;SDS011;22407;42.820;23.374;2023-03-14T07:47:38;22.83;;;8.97;;
31872;SDS011;22407;42.820;23.374;2023-03-14T07:50:04;16.03;;;6.80;;
31872;SDS011;22407;42.820;23.374;2023-03-14T07:52:29;19.27;;;7.95;;
31872;SDS011;22407;42.820;23.374;2023-03-14T07:54:55;17.03;;;8.33;;
31872;SDS011;22407;42.820;23.374;2023-03-14T07:57:20;14.87;;;6.93;;
31872;SDS011;22407;42.820;23.374;2023-03-14T07:59:45;16.27;;;6.97;;
31872;SDS011;22407;42.820;23.374;2023-03-14T08:02:11;14.37;;;6.60;;
31872;SDS011;22407;42.820;23.374;2023-03-14T08:04:37;16.35;;;7.10;;
31872;SDS011;22407;42.820;23.374;2023-03-14T08:07:02;26.83;;;10.60;;
31872;SDS011;22407;42.820;23.374;2023-03-14T08:09:28;21.87;;;9.33;;
31872;SDS011;22407;42.820;23.374;2023-03-14T08:11:53;17.90;;;7.40;;
31872;SDS011;22407;42.820;23.374;2023-03-14T08:14:18;22.83;;;9.20;;
31872;SDS011;22407;42.820;23.374;2023-03-14T08:16:43;19.37;;;7.60;;
31872;SDS011;22407;42.820;23.374;2023-03-14T08:19:09;13.93;;;6.37;;
31872;SDS011;22407;42.820;23.374;2023-03-14T08:21:34;14.50;;;6.40;;
31872;SDS011;22407;42.820;23.374;2023-03-14T08:23:59;25.40;;;12.23;;
31872;SDS011;22407;42.820;23.374;2023-03-14T08:26:25;17.17;;;7.40;;
31872;SDS011;22407;42.820;23.374;2023-03-14T08:28:50;14.47;;;7.03;;
31872;SDS011;22407;42.820;23.374;2023-03-14T08:31:16;18.60;;;8.57;;
31872;SDS011;22407;42.820;23.374;2023-03-14T08:33:41;15.67;;;6.93;;
31872;SDS011;22407;42.820;23.374;2023-03-14T08:36:06;17.80;;;7.97;;
31872;SDS011;22407;42.820;23.374;2023-03-14T08:38:32;18.43;;;7.50;;
31872;SDS011;22407;42.820;23.374;2023-03-14T08:40:58;20.10;;;7.03;;
31872;SDS011;22407;42.820;23.374;2023-03-14T08:43:23;16.17;;;6.80;;
31872;SDS011;22407;42.820;23.374;2023-03-14T08:45:49;14.60;;;6.27;;
31872;SDS011;22407;42.820;23.374;2023-03-14T08:48:14;12.43;;;5.50;;
31872;SDS011;22407;42.820;23.374;2023-03-14T08:50:39;14.33;;;6.93;;
31872;SDS011;22407;42.820;23.374;2023-03-14T08:53:04;13.30;;;6.07;;
31872;SDS011;22407;42.820;23.374;2023-03-14T08:55:30;10.93;;;4.90;;
31872;SDS011;22407;42.820;23.374;2023-03-14T08:57:55;11.90;;;5.30;;
31872;SDS011;22407;42.820;23.374;2023-03-14T09:00:20;11.40;;;4.60;;
31872;SDS011;22407;42.820;23.374;2023-03-14T09:02:46;8.17;;;3.90;;
31872;SDS011;22407;42.820;23.374;2023-03-14T09:05:11;8.50;;;3.83;;
31872;SDS011;22407;42.820;23.374;2023-03-14T09:07:37;10.20;;;4.80;;
31872;SDS011;22407;42.820;23.374;2023-03-14T09:10:03;9.90;;;4.63;;
31872;SDS011;22407;42.820;23.374;2023-03-14T09:12:28;8.70;;;4.07;;
31872;SDS011;22407;42.820;23.374;2023-03-14T09:14:53;9.73;;;4.33;;
31872;SDS011;22407;42.820;23.374;2023-03-14T09:17:19;10.20;;;4.30;;
31872;SDS011;22407;42.820;23.374;2023-03-14T09:19:44;10.03;;;3.97;;
31872;SDS011;22407;42.820;23.374;2023-03-14T09:22:09;8.97;;;4.57;;
31872;SDS011;22407;42.820;23.374;2023-03-14T09:24:35;10.03;;;4.20;;
31872;SDS011;22407;42.820;23.374;2023-03-14T09:27:00;9.33;;;4.63;;
31872;SDS011;22407;42.820;23.374;2023-03-14T09:29:25;11.52;;;3.85;;
31872;SDS011;22407;42.820;23.374;2023-03-14T09:31:51;9.83;;;4.20;;
31872;SDS011;22407;42.820;23.374;2023-03-14T09:34:16;10.90;;;3.90;;
31872;SDS011;22407;42.820;23.374;2023-03-14T09:36:42;10.67;;;4.00;;
31872;SDS011;22407;42.820;23.374;2023-03-14T09:39:09;8.85;;;4.10;;
31872;SDS011;22407;42.820;23.374;2023-03-14T09:41:35;7.80;;;3.67;;
31872;SDS011;22407;42.820;23.374;2023-03-14T09:46:27;8.93;;;3.53;;
31872;SDS011;22407;42.820;23.374;2023-03-14T09:48:54;8.88;;;3.88;;
31872;SDS011;22407;42.820;23.374;2023-03-14T09:51:19;7.10;;;3.13;;
31872;SDS011;22407;42.820;23.374;2023-03-14T09:53:47;10.85;;;3.65;;
31872;SDS011;22407;42.820;23.374;2023-03-14T09:56:14;6.63;;;3.25;;
31872;SDS011;22407;42.820;23.374;2023-03-14T09:58:41;8.97;;;4.33;;
31872;SDS011;22407;42.820;23.374;2023-03-14T10:01:07;9.18;;;3.65;;
31872;SDS011;22407;42.820;23.374;2023-03-14T10:03:34;8.02;;;4.10;;
31872;SDS011;22407;42.820;23.374;2023-03-14T10:06:00;8.45;;;3.80;;
31872;SDS011;22407;42.820;23.374;2023-03-14T10:08:25;8.97;;;4.23;;
31872;SDS011;22407;42.820;23.374;2023-03-14T10:10:51;9.90;;;4.73;;
31872;SDS011;22407;42.820;23.374;2023-03-14T10:13:18;9.63;;;4.80;;
31872;SDS011;22407;42.820;23.374;2023-03-14T10:16:03;8.75;;;4.50;;
31872;SDS011;22407;42.820;23.374;2023-03-14T10:18:31;8.13;;;3.95;;
31872;SDS011;22407;42.820;23.374;2023-03-14T10:23:46;9.35;;;4.20;;
31872;SDS011;22407;42.820;23.374;2023-03-14T10:26:13;7.57;;;3.40;;
31872;SDS011;22407;42.820;23.374;2023-03-14T10:31:04;10.47;;;3.40;;
31872;SDS011;22407;42.820;23.374;2023-03-14T10:33:30;7.47;;;3.47;;
31872;SDS011;22407;42.820;23.374;2023-03-14T10:36:14;8.98;;;4.50;;
31872;SDS011;22407;42.820;23.374;2023-03-14T10:38:40;7.97;;;3.97;;
31872;SDS011;22407;42.820;23.374;2023-03-14T10:41:25;7.43;;;3.42;;
31872;SDS011;22407;42.820;23.374;2023-03-14T10:43:51;10.13;;;3.33;;
31872;SDS011;22407;42.820;23.374;2023-03-14T10:46:18;9.05;;;4.15;;
31872;SDS011;22407;42.820;23.374;2023-03-14T10:48:44;9.48;;;4.10;;
31872;SDS011;22407;42.820;23.374;2023-03-14T10:53:43;11.10;;;5.70;;
31872;SDS011;22407;42.820;23.374;2023-03-14T10:56:12;10.00;;;4.30;;
31872;SDS011;22407;42.820;23.374;2023-03-14T10:58:40;9.77;;;4.15;;
31872;SDS011;22407;42.820;23.374;2023-03-14T11:01:15;13.48;;;4.90;;
31872;SDS011;22407;42.820;23.374;2023-03-14T11:03:45;8.20;;;4.07;;
31872;SDS011;22407;42.820;23.374;2023-03-14T11:06:28;8.60;;;3.77;;
31872;SDS011;22407;42.820;23.374;2023-03-14T11:09:07;9.18;;;4.25;;
31872;SDS011;22407;42.820;23.374;2023-03-14T11:11:35;9.00;;;3.88;;
31872;SDS011;22407;42.820;23.374;2023-03-14T11:16:30;9.07;;;3.87;;
31872;SDS011;22407;42.820;23.374;2023-03-14T11:21:54;27.88;;;8.93;;
31872;SDS011;22407;42.820;23.374;2023-03-14T11:24:19;12.37;;;4.60;;
31872;SDS011;22407;42.820;23.374;2023-03-14T11:29:15;9.43;;;4.87;;
31872;SDS011;22407;42.820;23.374;2023-03-14T11:31:43;9.15;;;3.63;;
31872;SDS011;22407;42.820;23.374;2023-03-14T11:36:39;8.05;;;3.75;;
31872;SDS011;22407;42.820;23.374;2023-03-14T11:39:08;8.15;;;3.67;;
31872;SDS011;22407;42.820;23.374;2023-03-14T11:41:37;7.90;;;3.97;;
31872;SDS011;22407;42.820;23.374;2023-03-14T11:44:05;8.93;;;3.85;;
31872;SDS011;22407;42.820;23.374;2023-03-14T11:46:38;7.28;;;3.60;;
31872;SDS011;22407;42.820;23.374;2023-03-14T11:51:36;6.80;;;3.47;;
31872;SDS011;22407;42.820;23.374;2023-03-14T11:54:20;8.03;;;3.60;;
31872;SDS011;22407;42.820;23.374;2023-03-14T11:57:01;7.53;;;3.40;;
31872;SDS011;22407;42.820;23.374;2023-03-14T11:59:34;6.72;;;3.63;;
31872;SDS011;22407;42.820;23.374;2023-03-14T12:02:09;26.40;;;9.25;;
31872;SDS011;22407;42.820;23.374;2023-03-14T12:07:02;6.93;;;3.63;;
31872;SDS011;22407;42.820;23.374;2023-03-14T12:09:28;11.63;;;6.00;;
31872;SDS011;22407;42.820;23.374;2023-03-14T12:11:54;9.67;;;3.40;;
31872;SDS011;22407;42.820;23.374;2023-03-14T12:16:49;11.03;;;5.50;;
31872;SDS011;22407;42.820;23.374;2023-03-14T12:24:22;9.32;;;3.65;;
31872;SDS011;22407;42.820;23.374;2023-03-14T12:26:52;116.83;;;11.13;;
31872;SDS011;22407;42.820;23.374;2023-03-14T12:29:18;18.92;;;5.53;;
31872;SDS011;22407;42.820;23.374;2023-03-14T12:31:45;15.97;;;5.93;;
31872;SDS011;22407;42.820;23.374;2023-03-14T12:46:59;8.95;;;3.42;;
31872;SDS011;22407;42.820;23.374;2023-03-14T12:49:31;7.30;;;3.40;;
31872;SDS011;22407;42.820;23.374;2023-03-14T12:52:00;7.35;;;3.53;;
31872;SDS011;22407;42.820;23.374;2023-03-14T12:54:33;8.80;;;4.68;;
31872;SDS011;22407;42.820;23.374;2023-03-14T12:57:13;10.07;;;4.88;;
31872;SDS011;22407;42.820;23.374;2023-03-14T12:59:45;28.50;;;10.75;;
31872;SDS011;22407;42.820;23.374;2023-03-14T13:02:17;10.47;;;3.67;;
31872;SDS011;22407;42.820;23.374;2023-03-14T13:07:13;7.50;;;3.42;;
31872;SDS011;22407;42.820;23.374;2023-03-14T13:12:22;8.20;;;4.47;;
31872;SDS011;22407;42.820;23.374;2023-03-14T13:14:49;8.38;;;3.70;;
31872;SDS011;22407;42.820;23.374;2023-03-14T13:17:19;7.00;;;3.20;;
31872;SDS011;22407;42.820;23.374;2023-03-14T13:19:50;5.77;;;2.30;;
31872;SDS011;22407;42.820;23.374;2023-03-14T13:22:19;5.80;;;2.67;;
31872;SDS011;22407;42.820;23.374;2023-03-14T13:24:45;6.07;;;2.97;;
31872;SDS011;22407;42.820;23.374;2023-03-14T13:27:20;6.70;;;3.10;;
31872;SDS011;22407;42.820;23.374;2023-03-14T13:29:45;8.18;;;3.92;;
31872;SDS011;22407;42.820;23.374;2023-03-14T13:32:17;7.30;;;3.60;;
31872;SDS011;22407;42.820;23.374;2023-03-14T13:34:44;6.68;;;3.20;;
31872;SDS011;22407;42.820;23.374;2023-03-14T13:37:22;6.35;;;2.58;;
31872;SDS011;22407;42.820;23.374;2023-03-14T13:39:54;6.70;;;2.90;;
31872;SDS011;22407;42.820;23.374;2023-03-14T13:42:20;7.65;;;2.95;;
31872;SDS011;22407;42.820;23.374;2023-03-14T13:44:46;6.10;;;2.40;;
31872;SDS011;22407;42.820;23.374;2023-03-14T13:47:16;6.57;;;2.83;;
31872;SDS011;22407;42.820;23.374;2023-03-14T13:49:41;9.88;;;3.70;;
31872;SDS011;22407;42.820;23.374;2023-03-14T13:52:49;5.40;;;2.30;;
31872;SDS011;22407;42.820;23.374;2023-03-14T13:54:56;5.73;;;2.07;;
31872;SDS011;22407;42.820;23.374;2023-03-14T13:57:22;5.30;;;1.98;;
31872;SDS011;22407;42.820;23.374;2023-03-14T14:00:01;6.95;;;2.50;;
31872;SDS011;22407;42.820;23.374;2023-03-14T14:02:27;6.53;;;2.40;;
31872;SDS011;22407;42.820;23.374;2023-03-14T14:04:53;5.88;;;2.20;;
31872;SDS011;22407;42.820;23.374;2023-03-14T14:07:18;5.80;;;2.80;;
31872;SDS011;22407;42.820;23.374;2023-03-14T14:09:50;5.97;;;2.20;;
31872;SDS011;22407;42.820;23.374;2023-03-14T14:14:58;6.00;;;2.13;;
31872;SDS011;22407;42.820;23.374;2023-03-14T14:17:27;6.25;;;2.53;;
31872;SDS011;22407;42.820;23.374;2023-03-14T14:19:55;6.80;;;2.63;;
31872;SDS011;22407;42.820;23.374;2023-03-14T14:22:21;5.43;;;2.38;;
31872;SDS011;22407;42.820;23.374;2023-03-14T14:24:46;5.83;;;2.57;;
31872;SDS011;22407;42.820;23.374;2023-03-14T14:27:17;6.20;;;2.10;;
31872;SDS011;22407;42.820;23.374;2023-03-14T14:29:43;6.22;;;2.47;;
31872;SDS011;22407;42.820;23.374;2023-03-14T14:37:33;7.13;;;3.75;;
31872;SDS011;22407;42.820;23.374;2023-03-14T14:40:00;8.20;;;2.73;;
31872;SDS011;22407;42.820;23.374;2023-03-14T14:42:30;6.80;;;2.20;;
31872;SDS011;22407;42.820;23.374;2023-03-14T14:44:57;6.57;;;2.70;;
31872;SDS011;22407;42.820;23.374;2023-03-14T14:47:23;7.40;;;2.35;;
31872;SDS011;22407;42.820;23.374;2023-03-14T14:49:49;7.03;;;2.40;;
31872;SDS011;22407;42.820;23.374;2023-03-14T14:52:17;5.03;;;1.83;;
31872;SDS011;22407;42.820;23.374;2023-03-14T14:54:44;6.88;;;3.08;;
31872;SDS011;22407;42.820;23.374;2023-03-14T14:57:21;8.85;;;3.30;;
31872;SDS011;22407;42.820;23.374;2023-03-14T14:59:48;15.25;;;4.05;;
31872;SDS011;22407;42.820;23.374;2023-03-14T15:04:48;7.03;;;2.60;;
31872;SDS011;22407;42.820;23.374;2023-03-14T15:07:13;6.20;;;2.80;;
31872;SDS011;22407;42.820;23.374;2023-03-14T15:09:41;9.50;;;4.00;;
31872;SDS011;22407;42.820;23.374;2023-03-14T15:12:07;7.65;;;2.95;;
31872;SDS011;22407;42.820;23.374;2023-03-14T15:14:32;6.43;;;2.13;;
31872;SDS011;22407;42.820;23.374;2023-03-14T15:16:57;18.43;;;2.93;;
31872;SDS011;22407;42.820;23.374;2023-03-14T15:19:24;6.20;;;2.53;;
31872;SDS011;22407;42.820;23.374;2023-03-14T15:21:50;6.93;;;2.70;;
31872;SDS011;22407;42.820;23.374;2023-03-14T15:24:15;8.50;;;3.10;;
31872;SDS011;22407;42.820;23.374;2023-03-14T15:26:40;6.17;;;2.73;;
31872;SDS011;22407;42.820;23.374;2023-03-14T15:29:06;5.87;;;2.50;;
31872;SDS011;22407;42.820;23.374;2023-03-14T15:31:33;8.75;;;3.22;;
31872;SDS011;22407;42.820;23.374;2023-03-14T15:33:58;6.60;;;2.60;;